• Join FlightAware (Why Join?)
  • Login
  • US Flag 
03:14AM EDT


 

Airport Tracker/Info


-or-


 

Live Flight TrackerFlight Track Log ✈ ASH3767 ✈ 29-Jun-2013 ✈ KDSM - KORD

Flight Track Log - Related Links

Times and Time Zones

All times are in EDT time to prevent confusion due to time zone crossing. See the ASH3767 flight status page for this flight to view local times or setup timezone preferences in your user account.

Time Position Orientation Groundspeed Altitude Reporting Facility
EDT Latitude Longitude Course Direction KTS MPH feet Rate Location/Type
08:34PM 41.5767 -93.5794 55° Northeast 193 222 5,900  Level Minneapolis Center
08:35PM 41.7222 -93.3375 47° Northeast  Level FlightAware Approximate
08:35PM 41.6197 -93.5128 49° Northeast 240 276 7,800  Level Minneapolis Center
08:36PM 41.7910 -93.2360 54° Northeast  Level FlightAware Approximate
08:36PM 41.6692 -93.4339 50° Northeast 264 304 10,500  Level Minneapolis Center
08:37PM 41.8515 -93.1251 54° Northeast  Level FlightAware Approximate
08:37PM 41.7253 -93.3475 49° Northeast 304 350 12,000  Level Minneapolis Center
08:38PM 41.9151 -93.0173 49° Northeast  Level FlightAware Approximate
08:38PM 41.7858 -93.2528 49° Northeast 330 380 14,200  Level Minneapolis Center
08:39PM 41.8356 -93.1717 51° Northeast 344 396 15,800 1,980 Climbing Minneapolis Center
08:40PM 41.9150 -93.0472 49° Northeast 363 418 18,400 1,980 Climbing Minneapolis Center
08:41PM 41.9764 -92.9458 51° Northeast 369 425 20,000 1,860 Climbing Minneapolis Center
08:41PM 42.0331 -92.8578 49° Northeast 384 442 21,600 1,860 Climbing Chicago Center
08:42PM 42.1000 -92.7475 51° Northeast 384 442 23,200 1,500 Climbing Chicago Center
08:43PM 42.1289 -92.7050 47° Northeast 387 445 24,000 1,320 Climbing Minneapolis Center
08:44PM 42.2128 -92.5669 51° Northeast 396 456 25,400 1,080 Climbing Minneapolis Center
08:45PM 42.2458 -92.4150 74° East 425 489 26,300 780 Climbing Minneapolis Center
08:46PM 42.2808 -92.2247 76° East 436 502 27,000 300 Climbing Minneapolis Center
08:47PM 42.3111 -92.0592 76° East 451 519 27,000  Level Minneapolis Center
08:48PM 42.3406 -91.8911 77° East 461 531 27,000  Level Minneapolis Center
08:49PM 42.3697 -91.7236 77° East 465 535 27,000  Level Minneapolis Center
08:50PM 42.3997 -91.5594 76° East 462 532 27,000  Level Minneapolis Center
08:51PM 42.4306 -91.3761 77° East 433 498 27,000  Level Minneapolis Center
08:52PM 42.4572 -91.2264 76° East 420 483 27,000  Level Minneapolis Center
08:53PM 42.4825 -91.0742 77° East 419 482 27,000  Level Minneapolis Center
08:55PM 42.5578 -90.8406 66° East 435 501 27,000  Level Chicago Center
08:56PM 42.5917 -90.6858 73° East 451 519 27,000 -300 Level Chicago Center
08:57PM 42.5828 -90.5222 94° East 442 509 26,400 -720 Descending Chicago Center
08:58PM 42.5733 -90.3600 94° East 436 502 25,600 -840 Descending Chicago Center
08:59PM 42.5622 -90.2078 96° East 412 474 24,800 -840 Descending Chicago Center
09:00PM 42.5517 -90.0603 95° East 399 459 24,000 -840 Descending Chicago Center
09:01PM 42.5322 -89.8956 99° East 389 448 23,100 -960 Descending Chicago Center
09:02PM 42.5172 -89.7494 98° East 391 450 22,100 -1,020 Descending Chicago Center
09:03PM 42.5000 -89.5983 99° East 402 463 21,100 -1,020 Descending Chicago Center
09:04PM 42.4831 -89.4486 99° East 401 461 20,100 -840 Descending Chicago Center
09:05PM 42.4636 -89.2742 99° East 400 460 19,400 -1,500 Descending Chicago Center
09:06PM 42.4467 -89.1267 99° East 398 458 17,100 -2,160 Descending Chicago Center
09:07PM 42.4311 -88.9886 99° East 378 435 15,000 -2,100 Descending Chicago Center
09:08PM 42.4156 -88.8528 99° East 368 423 12,900 -1,920 Descending Chicago Center
09:09PM 42.3997 -88.7219 99° East 355 409 11,100 -1,500 Descending Chicago Center
09:10PM 42.3867 -88.6039 98° East 323 372 9,900 -1,020 Descending Chicago Center
09:11PM 42.3733 -88.5011 100° East 292 336 9,100 -480 Descending Chicago Center
09:12PM 42.3197 -88.4414 141° Southeast 267 307 9,000 -60 Descending Chicago Center
09:13PM 42.2567 -88.4042 156° South 250 288 9,000 -480 Level Chicago Center
09:14PM 42.1792 -88.3769 165° South 241 277 8,100 -1,080 Descending Chicago Center
09:15PM 42.1219 -88.3714 176° South 214 246 6,900 -1,260 Descending Chicago Center
09:16PM 42.0636 -88.3733 181° South 211 243 5,600 -960 Descending Chicago Center
09:17PM 42.0061 -88.3714 179° South 209 241 5,000 -300 Descending Chicago Center
09:18PM 41.9578 -88.3519 163° South 205 236 5,000  Level Chicago Center
09:19PM 41.9672 -88.2919 78° East 164 189 5,000 -60 Level Chicago Center
09:20PM 41.9672 -88.2211 90° East 184 212 4,900 -720 Descending Chicago Center
09:21PM 41.9678 -88.1342 89° East 192 221 3,600 -1,140 Descending Chicago Center
09:22PM 41.9667 -88.0833 92° East 161 185 3,000 -900 Descending Chicago TRACON